createdAt,value
2022-08-30T00:00:36.678Z,0.00
2022-08-30T00:01:37.031Z,0.00
2022-08-30T00:02:37.564Z,0.00
2022-08-30T00:03:37.919Z,0.00
2022-08-30T00:04:38.164Z,0.00
2022-08-30T00:05:38.518Z,0.00
2022-08-30T00:06:38.875Z,0.00
2022-08-30T00:07:39.239Z,0.00
2022-08-30T00:08:39.632Z,0.00
2022-08-30T00:09:40.005Z,0.00
2022-08-30T00:10:40.367Z,0.00
2022-08-30T00:11:40.773Z,0.00
2022-08-30T00:12:41.065Z,0.00
2022-08-30T00:13:41.420Z,0.00
2022-08-30T00:14:41.820Z,0.00
2022-08-30T00:15:42.214Z,0.00
2022-08-30T00:16:42.533Z,0.00
2022-08-30T00:17:42.884Z,0.00
2022-08-30T00:18:43.263Z,0.00
2022-08-30T00:19:43.626Z,0.00
2022-08-30T00:20:43.976Z,0.00
2022-08-30T00:21:44.346Z,0.00
2022-08-30T00:22:44.692Z,0.00
2022-08-30T00:23:45.049Z,0.00
2022-08-30T00:24:45.421Z,0.00
2022-08-30T00:25:45.776Z,0.00
2022-08-30T00:26:46.135Z,0.00
2022-08-30T00:27:46.519Z,0.00
2022-08-30T00:28:46.853Z,0.00
2022-08-30T00:29:47.229Z,0.00
2022-08-30T00:30:47.642Z,0.00
2022-08-30T00:31:47.972Z,0.00
2022-08-30T00:32:48.318Z,0.00
2022-08-30T00:33:48.702Z,0.00
2022-08-30T00:34:49.120Z,0.00
2022-08-30T00:35:49.445Z,0.00
2022-08-30T00:36:49.761Z,0.00
2022-08-30T00:37:50.123Z,0.00
2022-08-30T00:38:50.500Z,0.00
2022-08-30T00:39:50.879Z,0.00
2022-08-30T00:40:51.255Z,0.00
2022-08-30T00:41:51.570Z,0.00
2022-08-30T00:42:54.548Z,0.00
2022-08-30T00:43:52.293Z,0.00
2022-08-30T00:44:52.669Z,0.00
2022-08-30T00:45:53.054Z,0.00
2022-08-30T00:46:53.401Z,0.00
2022-08-30T00:47:53.798Z,0.00
2022-08-30T00:48:54.186Z,0.00
2022-08-30T00:49:54.524Z,0.00
2022-08-30T00:50:54.861Z,0.00
2022-08-30T00:51:55.234Z,0.00
2022-08-30T00:52:55.587Z,0.00
2022-08-30T00:53:55.953Z,0.00
2022-08-30T00:54:56.350Z,0.00
2022-08-30T00:55:56.687Z,0.00
2022-08-30T00:56:57.027Z,0.00
2022-08-30T00:57:57.390Z,0.00
2022-08-30T00:58:57.744Z,0.00
2022-08-30T00:59:58.121Z,0.00
2022-08-30T01:00:58.453Z,0.00
2022-08-30T01:01:58.893Z,0.00
2022-08-30T01:02:59.276Z,0.00
2022-08-30T01:03:59.544Z,0.00
2022-08-30T01:04:59.935Z,0.00
2022-08-30T01:06:00.302Z,0.00
2022-08-30T01:07:00.614Z,0.00
2022-08-30T01:08:00.994Z,0.00
2022-08-30T01:09:01.335Z,0.00
2022-08-30T01:10:01.705Z,0.00
2022-08-30T01:11:02.051Z,0.00
2022-08-30T01:12:02.406Z,0.00
2022-08-30T01:13:02.753Z,0.00
2022-08-30T01:14:03.149Z,0.00
2022-08-30T01:15:03.512Z,0.00
2022-08-30T01:16:04.028Z,0.00
2022-08-30T01:17:04.227Z,0.00
2022-08-30T01:18:06.288Z,0.00
2022-08-30T01:19:04.982Z,0.00
2022-08-30T01:20:05.323Z,0.00
2022-08-30T01:21:05.689Z,0.00
2022-08-30T01:22:06.035Z,0.00
2022-08-30T01:23:06.393Z,0.00
2022-08-30T01:24:06.766Z,0.00
2022-08-30T01:25:08.190Z,0.00
2022-08-30T01:26:07.452Z,0.00
2022-08-30T01:27:07.806Z,0.00
2022-08-30T01:28:08.181Z,0.00
2022-08-30T01:29:08.525Z,0.00
2022-08-30T01:30:08.996Z,0.00
2022-08-30T01:31:09.379Z,0.00
2022-08-30T01:32:09.658Z,0.00
2022-08-30T01:33:10.136Z,0.00
2022-08-30T01:34:10.412Z,0.00
2022-08-30T01:35:10.774Z,0.00
2022-08-30T01:36:11.089Z,0.00
2022-08-30T01:37:11.443Z,0.00
2022-08-30T01:38:11.878Z,0.00
2022-08-30T01:39:12.208Z,0.00
2022-08-30T01:40:12.626Z,0.00
2022-08-30T01:41:12.935Z,0.00
2022-08-30T01:42:13.302Z,0.00
2022-08-30T01:43:13.712Z,0.00
2022-08-30T01:44:14.020Z,0.00
2022-08-30T01:45:14.391Z,0.00
2022-08-30T01:46:14.891Z,0.00
2022-08-30T01:47:15.117Z,0.00
2022-08-30T01:48:15.484Z,0.00
2022-08-30T01:49:15.847Z,0.00
2022-08-30T01:50:16.207Z,0.00
2022-08-30T01:51:16.555Z,0.00
2022-08-30T01:52:16.965Z,0.00
2022-08-30T01:53:17.348Z,0.00
2022-08-30T01:54:17.661Z,0.00
2022-08-30T01:55:18.038Z,0.00
2022-08-30T01:56:18.483Z,0.00
2022-08-30T01:57:18.743Z,0.00
2022-08-30T01:58:19.098Z,0.00
2022-08-30T01:59:19.476Z,0.00
2022-08-30T02:00:19.857Z,0.00
2022-08-30T02:01:20.239Z,0.00
2022-08-30T02:02:20.553Z,0.00
2022-08-30T02:03:21.002Z,0.00
2022-08-30T02:04:21.279Z,0.00
2022-08-30T02:05:21.633Z,0.00
2022-08-30T02:06:21.992Z,0.00
2022-08-30T02:07:22.359Z,0.00
2022-08-30T02:08:22.705Z,0.00
2022-08-30T02:09:23.073Z,0.00
2022-08-30T02:10:23.449Z,0.00
2022-08-30T02:11:23.834Z,0.00
2022-08-30T02:12:24.217Z,0.00
2022-08-30T02:13:24.533Z,0.00
2022-08-30T02:14:24.905Z,0.00
2022-08-30T02:15:25.295Z,0.00
2022-08-30T02:16:25.692Z,0.00
2022-08-30T02:17:26.001Z,0.00
2022-08-30T02:18:26.389Z,0.00
2022-08-30T02:19:26.751Z,0.00
2022-08-30T02:20:27.127Z,0.00
2022-08-30T02:21:27.482Z,0.00
2022-08-30T02:22:27.836Z,0.00
2022-08-30T02:23:28.182Z,0.00
2022-08-30T02:24:28.548Z,0.00
2022-08-30T02:25:28.936Z,0.00
2022-08-30T02:26:29.300Z,0.00
2022-08-30T02:27:29.671Z,0.00
2022-08-30T02:28:30.055Z,0.00
2022-08-30T02:29:30.412Z,0.00
2022-08-30T02:30:30.839Z,0.00
2022-08-30T02:31:31.089Z,0.00
2022-08-30T02:32:31.458Z,0.00
2022-08-30T02:33:31.806Z,0.00
2022-08-30T02:34:32.218Z,0.00
2022-08-30T02:35:32.623Z,0.00
2022-08-30T02:36:32.919Z,0.00
2022-08-30T02:37:33.267Z,0.00
2022-08-30T02:38:33.652Z,0.00
2022-08-30T02:39:34.001Z,0.00
2022-08-30T02:40:34.439Z,0.00
2022-08-30T02:41:34.785Z,0.00
2022-08-30T02:42:35.186Z,0.00
2022-08-30T02:43:35.452Z,0.00
2022-08-30T02:44:35.815Z,0.00
2022-08-30T02:45:36.208Z,0.00
2022-08-30T02:46:36.544Z,0.00
2022-08-30T02:47:36.922Z,0.00
2022-08-30T02:48:37.270Z,0.00
2022-08-30T02:49:37.679Z,0.00
2022-08-30T02:50:38.016Z,0.00
2022-08-30T02:51:38.372Z,0.00
2022-08-30T02:52:38.724Z,0.00
2022-08-30T02:53:39.077Z,0.00
2022-08-30T02:54:39.444Z,0.00
2022-08-30T02:55:39.827Z,0.00
2022-08-30T02:56:40.146Z,0.00
2022-08-30T02:57:40.502Z,0.00
2022-08-30T02:58:40.886Z,0.00
2022-08-30T02:59:41.248Z,0.00
2022-08-30T03:00:41.644Z,0.00
2022-08-30T03:01:42.028Z,0.00
2022-08-30T03:02:42.340Z,0.00
2022-08-30T03:03:42.728Z,0.00
2022-08-30T03:04:43.049Z,0.00
2022-08-30T03:05:43.459Z,0.00
2022-08-30T03:06:43.816Z,0.00
2022-08-30T03:07:44.132Z,0.00
2022-08-30T03:08:44.529Z,0.00
2022-08-30T03:09:44.841Z,0.00
2022-08-30T03:10:45.221Z,0.00
2022-08-30T03:11:45.583Z,0.00
2022-08-30T03:12:45.946Z,0.00
2022-08-30T03:13:46.295Z,0.00
2022-08-30T03:14:46.656Z,0.00
2022-08-30T03:15:47.017Z,0.00
2022-08-30T03:16:47.458Z,0.00
2022-08-30T03:17:47.724Z,0.00
2022-08-30T03:18:48.089Z,0.00
2022-08-30T03:19:48.476Z,0.00
2022-08-30T03:20:53.974Z,0.00
2022-08-30T03:21:49.194Z,0.00
2022-08-30T03:22:49.543Z,0.00
2022-08-30T03:23:49.896Z,0.00
2022-08-30T03:24:50.273Z,0.00
2022-08-30T03:25:50.663Z,0.00
2022-08-30T03:26:51.051Z,0.00
2022-08-30T03:27:51.383Z,0.00
2022-08-30T03:28:51.711Z,0.00
2022-08-30T03:29:52.070Z,0.00
2022-08-30T03:30:52.446Z,0.00
2022-08-30T03:31:53.898Z,0.00
2022-08-30T03:32:53.190Z,0.00
2022-08-30T03:33:53.531Z,0.00
2022-08-30T03:34:53.887Z,0.00
2022-08-30T03:35:54.289Z,0.00
2022-08-30T03:36:54.614Z,0.00
2022-08-30T03:37:56.421Z,0.00
2022-08-30T03:38:55.383Z,0.00
2022-08-30T03:39:55.726Z,0.00
2022-08-30T03:40:56.110Z,0.00
2022-08-30T03:41:56.455Z,0.00
2022-08-30T03:42:56.813Z,0.00
2022-08-30T03:44:00.110Z,0.00
2022-08-30T03:44:57.552Z,0.00
2022-08-30T03:45:58.028Z,0.00
2022-08-30T03:46:58.350Z,0.00
2022-08-30T03:47:58.736Z,0.00
2022-08-30T03:48:59.068Z,0.00
2022-08-30T03:49:59.448Z,0.00
2022-08-30T03:50:59.834Z,0.00
2022-08-30T03:51:59.936Z,1.00
2022-08-30T03:53:00.101Z,1.00
2022-08-30T03:54:00.402Z,1.00
2022-08-30T03:55:00.567Z,2.00
2022-08-30T03:56:00.758Z,2.00
2022-08-30T03:57:01.007Z,2.00
2022-08-30T03:58:01.322Z,1.00
2022-08-30T03:59:01.483Z,3.00
2022-08-30T04:00:01.782Z,2.00
2022-08-30T04:01:02.111Z,2.00
2022-08-30T04:02:02.375Z,5.00
2022-08-30T04:03:02.526Z,5.00
2022-08-30T04:04:02.687Z,2.00
2022-08-30T04:05:02.850Z,3.00
2022-08-30T04:06:03.043Z,5.00
2022-08-30T04:07:03.193Z,2.00
2022-08-30T04:08:03.489Z,5.00
2022-08-30T04:09:03.652Z,7.00
2022-08-30T04:10:03.846Z,11.00
2022-08-30T04:11:05.103Z,13.00
2022-08-30T04:12:04.383Z,11.00
2022-08-30T04:13:04.488Z,16.00
2022-08-30T04:14:04.668Z,14.00
2022-08-30T04:15:04.879Z,22.00
2022-08-30T04:16:05.088Z,21.00
2022-08-30T04:17:05.392Z,26.00
2022-08-30T04:18:05.490Z,24.00
2022-08-30T04:19:05.777Z,22.00
2022-08-30T04:20:05.990Z,28.00
2022-08-30T04:21:06.166Z,32.00
2022-08-30T04:22:06.337Z,36.00
2022-08-30T04:23:06.607Z,36.00
2022-08-30T04:24:06.818Z,36.00
2022-08-30T04:25:07.082Z,39.00
2022-08-30T04:26:07.393Z,45.00
2022-08-30T04:27:07.573Z,50.00
2022-08-30T04:28:07.735Z,56.00
2022-08-30T04:29:07.941Z,60.00
2022-08-30T04:30:08.107Z,68.00
2022-08-30T04:31:08.325Z,72.00
2022-08-30T04:32:08.513Z,76.00
2022-08-30T04:33:08.636Z,80.00
2022-08-30T04:34:08.832Z,82.00
2022-08-30T04:35:09.126Z,88.00
2022-08-30T04:36:09.453Z,90.00
2022-08-30T04:37:10.013Z,92.00
2022-08-30T04:38:09.874Z,93.00
2022-08-30T04:39:10.168Z,93.00
2022-08-30T04:40:10.528Z,89.00
2022-08-30T04:41:10.765Z,93.00
2022-08-30T04:42:11.079Z,96.00
2022-08-30T04:43:11.216Z,99.00
2022-08-30T04:44:16.860Z,104.00
2022-08-30T04:45:11.818Z,110.00
2022-08-30T04:46:12.066Z,122.00
2022-08-30T04:47:12.263Z,134.00
2022-08-30T04:48:12.424Z,145.00
2022-08-30T04:49:12.606Z,147.00
2022-08-30T04:50:12.809Z,160.00
2022-08-30T04:51:13.077Z,162.00
2022-08-30T04:52:13.234Z,177.00
2022-08-30T04:53:13.494Z,182.00
2022-08-30T04:54:13.587Z,188.00
2022-08-30T04:55:16.792Z,195.00
2022-08-30T04:56:14.070Z,204.00
2022-08-30T04:57:14.123Z,219.00
2022-08-30T04:58:14.299Z,217.00
2022-08-30T04:59:14.482Z,235.00
2022-08-30T05:00:14.674Z,255.00
2022-08-30T05:01:14.995Z,288.00
2022-08-30T05:02:15.120Z,334.00
2022-08-30T05:03:15.426Z,379.00
2022-08-30T05:04:15.613Z,413.00
2022-08-30T05:05:15.778Z,470.00
2022-08-30T05:06:15.988Z,555.00
2022-08-30T05:07:16.136Z,636.00
2022-08-30T05:08:16.343Z,727.00
2022-08-30T05:09:16.488Z,816.00
2022-08-30T05:10:16.692Z,892.00
2022-08-30T05:11:16.849Z,973.00
2022-08-30T05:12:17.021Z,1049.00
2022-08-30T05:13:17.492Z,1098.00
2022-08-30T05:14:17.379Z,1115.00
2022-08-30T05:15:17.589Z,1104.00
2022-08-30T05:16:18.159Z,1092.00
2022-08-30T05:17:18.087Z,1070.00
2022-08-30T05:18:18.256Z,1040.00
2022-08-30T05:19:18.457Z,1014.00
2022-08-30T05:20:18.766Z,1016.00
2022-08-30T05:21:18.961Z,1039.00
2022-08-30T05:22:19.139Z,1070.00
2022-08-30T05:23:19.312Z,1104.00
2022-08-30T05:24:19.531Z,1118.00
2022-08-30T05:25:19.715Z,1121.00
2022-08-30T05:26:19.905Z,1107.00
2022-08-30T05:27:20.645Z,1050.00
2022-08-30T05:28:25.967Z,991.00
2022-08-30T05:29:20.521Z,944.00
2022-08-30T05:30:20.616Z,904.00
2022-08-30T05:31:20.880Z,866.00
2022-08-30T05:32:20.956Z,824.00
2022-08-30T05:33:21.149Z,768.00
2022-08-30T05:34:21.316Z,693.00
2022-08-30T05:35:25.573Z,632.00
2022-08-30T05:36:21.735Z,653.00
2022-08-30T05:37:21.833Z,684.00
2022-08-30T05:38:22.024Z,681.00
2022-08-30T05:39:22.188Z,647.00
2022-08-30T05:40:22.455Z,606.00
2022-08-30T05:41:22.565Z,559.00
2022-08-30T05:42:22.740Z,531.00
2022-08-30T05:43:22.880Z,514.00
2022-08-30T05:44:25.829Z,524.00
2022-08-30T05:45:23.258Z,572.00
2022-08-30T05:46:23.557Z,620.00
2022-08-30T05:47:23.704Z,699.00
2022-08-30T05:48:23.883Z,796.00
2022-08-30T05:49:24.064Z,898.00
2022-08-30T05:50:24.235Z,968.00
2022-08-30T05:51:24.447Z,1017.00
2022-08-30T05:52:24.619Z,1070.00
2022-08-30T05:53:24.797Z,1156.00
2022-08-30T05:54:24.973Z,1299.00
2022-08-30T05:55:25.163Z,1424.00
2022-08-30T05:56:25.954Z,1513.00
2022-08-30T05:57:25.555Z,1608.00
2022-08-30T05:58:25.752Z,1670.00
2022-08-30T05:59:25.944Z,1728.00
2022-08-30T06:00:26.145Z,1806.00
2022-08-30T06:01:26.407Z,1864.00
2022-08-30T06:02:26.480Z,1918.00
2022-08-30T06:03:27.051Z,1971.00
2022-08-30T06:04:26.871Z,1975.00
2022-08-30T06:05:27.053Z,1927.00
2022-08-30T06:06:27.253Z,1923.00
2022-08-30T06:07:27.424Z,1955.00
2022-08-30T06:08:27.634Z,2050.00
2022-08-30T06:09:27.776Z,2153.00
2022-08-30T06:10:27.992Z,2305.00
2022-08-30T06:11:28.187Z,2399.00
2022-08-30T06:12:28.357Z,2509.00
2022-08-30T06:13:28.550Z,2523.00
2022-08-30T06:14:28.747Z,2469.00
2022-08-30T06:15:28.941Z,2488.00
2022-08-30T06:16:29.205Z,2565.00
2022-08-30T06:17:29.331Z,2690.00
2022-08-30T06:18:29.542Z,2774.00
2022-08-30T06:19:29.728Z,2838.00
2022-08-30T06:20:29.924Z,2917.00
2022-08-30T06:21:30.122Z,3040.00
2022-08-30T06:22:30.265Z,3200.00
2022-08-30T06:23:30.460Z,3401.00
2022-08-30T06:24:41.390Z,3625.00
2022-08-30T06:25:41.220Z,3823.00
2022-08-30T06:27:31.246Z,4009.00
2022-08-30T06:28:31.436Z,4065.00
2022-08-30T06:29:31.627Z,4113.00
2022-08-30T06:30:31.826Z,4221.00
2022-08-30T06:31:32.055Z,4305.00
2022-08-30T06:32:32.251Z,4445.00
2022-08-30T06:33:32.415Z,4631.00
2022-08-30T06:34:32.722Z,4832.00
2022-08-30T06:35:38.084Z,4994.00
2022-08-30T06:36:33.007Z,5095.00
2022-08-30T06:37:33.163Z,5099.00
2022-08-30T06:38:33.398Z,5054.00
2022-08-30T06:39:33.546Z,5050.00
2022-08-30T06:40:33.783Z,5041.00
2022-08-30T06:41:33.968Z,5005.00
2022-08-30T06:42:34.169Z,4962.00
2022-08-30T06:43:34.343Z,4931.00
2022-08-30T06:44:34.574Z,4920.00
2022-08-30T06:45:34.739Z,4950.00
2022-08-30T06:46:34.998Z,4958.00
2022-08-30T06:47:35.126Z,4880.00
2022-08-30T06:48:35.326Z,4818.00
2022-08-30T06:49:35.479Z,4794.00
2022-08-30T06:50:35.688Z,4805.00
2022-08-30T06:51:35.893Z,4936.00
2022-08-30T06:52:36.131Z,5089.00
2022-08-30T06:53:36.253Z,5342.00
2022-08-30T06:54:36.415Z,5708.00
2022-08-30T06:55:36.623Z,6001.00
2022-08-30T06:56:36.824Z,6305.00
2022-08-30T06:57:36.967Z,6596.00
2022-08-30T06:58:37.155Z,6746.00
2022-08-30T06:59:37.364Z,6925.00
2022-08-30T07:00:37.536Z,7167.00
2022-08-30T07:01:37.775Z,7442.00
2022-08-30T07:02:38.000Z,7620.00
2022-08-30T07:03:38.113Z,7857.00
2022-08-30T07:04:38.302Z,8005.00
2022-08-30T07:05:38.496Z,8074.00
2022-08-30T07:06:38.710Z,8066.00
2022-08-30T07:07:38.875Z,7932.00
2022-08-30T07:08:39.079Z,7544.00
2022-08-30T07:09:39.285Z,7680.00
2022-08-30T07:10:39.445Z,7801.00
2022-08-30T07:11:39.648Z,7887.00
2022-08-30T07:12:39.895Z,7907.00
2022-08-30T07:13:40.061Z,7933.00
2022-08-30T07:14:40.181Z,8009.00
2022-08-30T07:15:40.433Z,8132.00
2022-08-30T07:16:40.571Z,8142.00
2022-08-30T07:17:40.734Z,8120.00
2022-08-30T07:18:40.911Z,8176.00
2022-08-30T07:19:41.113Z,8233.00
2022-08-30T07:20:41.299Z,8286.00
2022-08-30T07:21:41.509Z,8272.00
2022-08-30T07:22:41.660Z,8288.00
2022-08-30T07:23:41.879Z,8297.00
2022-08-30T07:24:42.066Z,8333.00
2022-08-30T07:25:42.253Z,8389.00
2022-08-30T07:26:42.464Z,8467.00
2022-08-30T07:27:42.633Z,8545.00
2022-08-30T07:28:42.837Z,8532.00
2022-08-30T07:29:42.996Z,8525.00
2022-08-30T07:30:43.169Z,8488.00
2022-08-30T07:31:43.375Z,8477.00
2022-08-30T07:32:43.571Z,8450.00
2022-08-30T07:33:43.754Z,8432.00
2022-08-30T07:34:43.972Z,8354.00
2022-08-30T07:35:44.121Z,8291.00
2022-08-30T07:36:44.378Z,8236.00
2022-08-30T07:37:44.480Z,8200.00
2022-08-30T07:38:44.653Z,8208.00
2022-08-30T07:39:47.855Z,8264.00
2022-08-30T07:40:45.165Z,8300.00
2022-08-30T07:41:45.211Z,8317.00
2022-08-30T07:42:45.406Z,8343.00
2022-08-30T07:43:45.585Z,8348.00
2022-08-30T07:44:45.770Z,8365.00
2022-08-30T07:45:45.960Z,8346.00
2022-08-30T07:46:46.229Z,8339.00
2022-08-30T07:47:46.327Z,8322.00
2022-08-30T07:48:46.543Z,8311.00
2022-08-30T07:49:46.691Z,8300.00
2022-08-30T07:50:46.882Z,8292.00
2022-08-30T07:51:47.086Z,8297.00
2022-08-30T07:52:47.290Z,8292.00
2022-08-30T07:53:47.495Z,8297.00
2022-08-30T07:54:47.679Z,8272.00
2022-08-30T07:55:47.868Z,8226.00
2022-08-30T07:56:48.082Z,8171.00
2022-08-30T07:57:48.259Z,8092.00
2022-08-30T07:58:48.810Z,8031.00
2022-08-30T07:59:48.605Z,7926.00
2022-08-30T08:00:48.795Z,7844.00
2022-08-30T08:01:49.061Z,7781.00
2022-08-30T08:02:49.233Z,7731.00
2022-08-30T08:03:49.362Z,7702.00
2022-08-30T08:04:49.562Z,7690.00
2022-08-30T08:05:49.715Z,7680.00
2022-08-30T08:06:49.950Z,7685.00
2022-08-30T08:07:50.121Z,7694.00
2022-08-30T08:08:50.308Z,7699.00
2022-08-30T08:09:50.529Z,7696.00
2022-08-30T08:10:50.668Z,7657.00
2022-08-30T08:11:50.882Z,7639.00
2022-08-30T08:12:51.250Z,7575.00
2022-08-30T08:13:53.091Z,7483.00
2022-08-30T08:14:51.402Z,7427.00
2022-08-30T08:15:51.636Z,7333.00
2022-08-30T08:16:51.811Z,7350.00
2022-08-30T08:17:51.978Z,7395.00
2022-08-30T08:18:52.172Z,7452.00
2022-08-30T08:19:52.348Z,7539.00
2022-08-30T08:20:52.555Z,7681.00
2022-08-30T08:22:15.270Z,7792.00
2022-08-30T08:22:52.925Z,7858.00
2022-08-30T08:23:53.107Z,7941.00
2022-08-30T08:24:53.297Z,7989.00
2022-08-30T08:25:53.510Z,8026.00
2022-08-30T08:26:53.703Z,8083.00
2022-08-30T08:27:53.862Z,8191.00
2022-08-30T08:28:54.057Z,8298.00
2022-08-30T08:29:54.262Z,8372.00
2022-08-30T08:30:54.497Z,8480.00
2022-08-30T08:31:54.674Z,8594.00
2022-08-30T08:32:54.824Z,8700.00
2022-08-30T08:33:55.076Z,8800.00
2022-08-30T08:34:55.223Z,8874.00
2022-08-30T08:35:55.448Z,8963.00
2022-08-30T08:36:55.660Z,9058.00
2022-08-30T08:37:55.840Z,9165.00
2022-08-30T08:38:56.033Z,9243.00
2022-08-30T08:39:56.234Z,9353.00
2022-08-30T08:40:56.385Z,9455.00
2022-08-30T08:41:56.595Z,9536.00
2022-08-30T08:42:56.753Z,9601.00
2022-08-30T08:43:56.947Z,9632.00
2022-08-30T08:44:57.140Z,9654.00
2022-08-30T08:45:57.380Z,9721.00
2022-08-30T08:46:57.518Z,9774.00
2022-08-30T08:47:57.686Z,9799.00
2022-08-30T08:49:00.255Z,9843.00
2022-08-30T08:49:58.087Z,9844.00
2022-08-30T08:51:02.019Z,9824.00
2022-08-30T08:51:58.497Z,9902.00
2022-08-30T08:52:58.655Z,9982.00
2022-08-30T08:53:58.871Z,10069.00
2022-08-30T08:54:59.289Z,10152.00
2022-08-30T08:55:59.251Z,10224.00
2022-08-30T08:56:59.470Z,10228.00
2022-08-30T08:57:59.669Z,10236.00
2022-08-30T08:58:59.867Z,10299.00
2022-08-30T09:00:00.041Z,10343.00
2022-08-30T09:01:00.215Z,10327.00
2022-08-30T09:02:00.500Z,10312.00
2022-08-30T09:03:00.637Z,10286.00
2022-08-30T09:04:00.917Z,10261.00
2022-08-30T09:05:01.094Z,10078.00
2022-08-30T09:06:01.245Z,9804.00
2022-08-30T09:07:01.416Z,9521.00
2022-08-30T09:08:01.583Z,9497.00
2022-08-30T09:09:01.783Z,9602.00
2022-08-30T09:10:02.036Z,9568.00
2022-08-30T09:11:02.163Z,9461.00
2022-08-30T09:12:02.367Z,9256.00
2022-08-30T09:13:02.573Z,9366.00
2022-08-30T09:14:02.728Z,9352.00
2022-08-30T09:15:02.946Z,8831.00
2022-08-30T09:16:03.136Z,8448.00
2022-08-30T09:17:03.428Z,8223.00
2022-08-30T09:18:03.472Z,7739.00
2022-08-30T09:19:03.695Z,7115.00
2022-08-30T09:20:03.897Z,7004.00
2022-08-30T09:21:04.081Z,7758.00
2022-08-30T09:22:04.317Z,8814.00
2022-08-30T09:23:04.488Z,9985.00
2022-08-30T09:24:04.696Z,10586.00
2022-08-30T09:25:04.974Z,10565.00
2022-08-30T09:26:05.109Z,10384.00
2022-08-30T09:27:05.392Z,10406.00
2022-08-30T09:28:05.579Z,10375.00
2022-08-30T09:29:05.822Z,10549.00
2022-08-30T09:30:05.906Z,11131.00
2022-08-30T09:31:11.310Z,11395.00
2022-08-30T09:32:24.891Z,11238.00
2022-08-30T09:33:06.482Z,11164.00
2022-08-30T09:34:06.685Z,12572.00
2022-08-30T09:35:06.852Z,13786.00
2022-08-30T09:36:07.045Z,13722.00
2022-08-30T09:37:07.306Z,13979.00
2022-08-30T09:38:07.470Z,14550.00
2022-08-30T09:39:07.660Z,14476.00
2022-08-30T09:40:07.923Z,14542.00
2022-08-30T09:41:08.069Z,13897.00
2022-08-30T09:42:08.328Z,12271.00
2022-08-30T09:43:08.525Z,11374.00
2022-08-30T09:44:08.699Z,11884.00
2022-08-30T09:45:08.879Z,12638.00
2022-08-30T09:46:09.182Z,12581.00
2022-08-30T09:47:09.290Z,13810.00
2022-08-30T09:48:09.515Z,14581.00
2022-08-30T09:49:09.671Z,17648.00
2022-08-30T09:50:09.894Z,16036.00
2022-08-30T09:51:10.103Z,78343.00
2022-08-30T09:52:10.325Z,75817.00
2022-08-30T09:53:10.506Z,77059.00
2022-08-30T09:54:18.726Z,17775.00
2022-08-30T09:55:10.911Z,14906.00
2022-08-30T09:56:11.119Z,14307.00
2022-08-30T09:57:12.496Z,12304.00
2022-08-30T09:58:11.505Z,12117.00
2022-08-30T09:59:11.727Z,11913.00
2022-08-30T10:00:13.543Z,11040.00
2022-08-30T10:01:12.129Z,9706.00
2022-08-30T10:02:12.312Z,8900.00
2022-08-30T10:03:12.481Z,8003.00
2022-08-30T10:04:12.665Z,7423.00
2022-08-30T10:05:12.865Z,7588.00
2022-08-30T10:06:13.065Z,9120.00
2022-08-30T10:07:13.281Z,11107.00
2022-08-30T10:08:13.458Z,13418.00
2022-08-30T10:09:13.638Z,15355.00
2022-08-30T10:10:13.901Z,18019.00
2022-08-30T10:11:14.041Z,16306.00
2022-08-30T10:12:15.457Z,13482.00
2022-08-30T10:13:14.424Z,11567.00
2022-08-30T10:14:14.623Z,10483.00
2022-08-30T10:15:14.866Z,10099.00
2022-08-30T10:16:15.014Z,11547.00
2022-08-30T10:17:15.281Z,24985.00
2022-08-30T10:18:15.566Z,21483.00
2022-08-30T10:19:15.631Z,21702.00
2022-08-30T10:20:15.854Z,20230.00
2022-08-30T10:21:19.241Z,20733.00
2022-08-30T10:22:16.249Z,22387.00
2022-08-30T10:23:16.686Z,22866.00
2022-08-30T10:24:19.613Z,25506.00
2022-08-30T10:25:16.881Z,24303.00
2022-08-30T10:26:19.305Z,22199.00
2022-08-30T10:27:17.689Z,18683.00
2022-08-30T10:28:17.447Z,23710.00
2022-08-30T10:29:17.662Z,75230.00
2022-08-30T10:30:17.848Z,80280.00
2022-08-30T10:31:18.082Z,20977.00
2022-08-30T10:32:18.235Z,17036.00
2022-08-30T10:33:18.602Z,15814.00
2022-08-30T10:34:18.625Z,17559.00
2022-08-30T10:35:19.648Z,16240.00
2022-08-30T10:36:19.054Z,16122.00
2022-08-30T10:37:19.297Z,16270.00
2022-08-30T10:38:19.471Z,14078.00
2022-08-30T10:39:19.666Z,13024.00
2022-08-30T10:40:19.844Z,12334.00
2022-08-30T10:41:20.047Z,11795.00
2022-08-30T10:42:20.284Z,11360.00
2022-08-30T10:43:20.451Z,11099.00
2022-08-30T10:44:20.669Z,11329.00
2022-08-30T10:45:20.858Z,12051.00
2022-08-30T10:46:21.086Z,11240.00
2022-08-30T10:47:23.575Z,10964.00
2022-08-30T10:48:21.499Z,11032.00
2022-08-30T10:49:21.737Z,12562.00
2022-08-30T10:50:21.890Z,74700.00
2022-08-30T10:51:22.077Z,81353.00
2022-08-30T10:52:22.317Z,22662.00
2022-08-30T10:53:22.503Z,82287.00
2022-08-30T10:54:22.688Z,12071.00
2022-08-30T10:55:22.886Z,9970.00
2022-08-30T10:56:23.078Z,8580.00
2022-08-30T10:57:23.405Z,7049.00
2022-08-30T10:58:23.505Z,5647.00
2022-08-30T10:59:23.678Z,5187.00
2022-08-30T11:00:23.868Z,5028.00
2022-08-30T11:01:28.255Z,4957.00
2022-08-30T11:02:24.240Z,5024.00
2022-08-30T11:03:24.401Z,5259.00
2022-08-30T11:04:24.588Z,5558.00
2022-08-30T11:05:24.777Z,5904.00
2022-08-30T11:06:24.985Z,6310.00
2022-08-30T11:07:25.196Z,6895.00
2022-08-30T11:08:25.399Z,7459.00
2022-08-30T11:09:25.607Z,7897.00
2022-08-30T11:10:25.785Z,8254.00
2022-08-30T11:11:25.970Z,8566.00
2022-08-30T11:12:26.409Z,8828.00
2022-08-30T11:13:26.355Z,8912.00
2022-08-30T11:14:26.520Z,9120.00
2022-08-30T11:15:26.711Z,9305.00
2022-08-30T11:16:26.878Z,9593.00
2022-08-30T11:17:27.111Z,10182.00
2022-08-30T11:18:27.321Z,10714.00
2022-08-30T11:19:27.521Z,11077.00
2022-08-30T11:20:27.691Z,11127.00
2022-08-30T11:21:27.894Z,11108.00
2022-08-30T11:22:28.097Z,10962.00
2022-08-30T11:42:43.817Z,10700.00
2022-08-30T11:42:49.329Z,5853.00
2022-08-30T11:43:49.072Z,82764.00
2022-08-30T11:44:49.259Z,83571.00
2022-08-30T11:45:49.514Z,82782.00
2022-08-30T11:46:49.639Z,82324.00
2022-08-30T11:47:49.793Z,83367.00
2022-08-30T11:48:54.442Z,81169.00
2022-08-30T11:49:50.308Z,83319.00
2022-08-30T11:50:50.415Z,80287.00
2022-08-30T11:52:08.513Z,80208.00
2022-08-30T11:52:50.798Z,79285.00
2022-08-30T11:53:51.057Z,80366.00
2022-08-30T11:54:53.308Z,82297.00
2022-08-30T11:55:51.426Z,81735.00
2022-08-30T11:56:51.633Z,80115.00
2022-08-30T11:57:51.802Z,79766.00
2022-08-30T11:58:52.015Z,80639.00
2022-08-30T11:59:52.211Z,81430.00
2022-08-30T12:00:53.055Z,80813.00
2022-08-30T12:01:52.583Z,79840.00
2022-08-30T12:02:52.885Z,80654.00
2022-08-30T12:03:53.006Z,82122.00
2022-08-30T12:04:53.198Z,83290.00
2022-08-30T12:05:53.399Z,83190.00
2022-08-30T12:06:53.572Z,82807.00
2022-08-30T12:07:53.838Z,80086.00
2022-08-30T12:08:57.947Z,81198.00
2022-08-30T12:09:54.148Z,17224.00
2022-08-30T12:10:54.353Z,77005.00
2022-08-30T12:11:54.524Z,9485.00
2022-08-30T12:12:54.717Z,9237.00
2022-08-30T12:13:54.958Z,81111.00
2022-08-30T12:14:55.152Z,79800.00
2022-08-30T12:15:55.328Z,80180.00
2022-08-30T12:16:55.546Z,80780.00
2022-08-30T12:17:55.731Z,80355.00
2022-08-30T12:18:55.913Z,79378.00
2022-08-30T12:19:56.183Z,79294.00
2022-08-30T12:20:56.464Z,80220.00
2022-08-30T12:21:56.495Z,80970.00
2022-08-30T12:22:56.709Z,81809.00
2022-08-30T12:23:56.971Z,82506.00
2022-08-30T12:24:57.124Z,83117.00
2022-08-30T12:25:57.367Z,83442.00
2022-08-30T12:26:57.576Z,81163.00
2022-08-30T12:28:01.662Z,83137.00
2022-08-30T12:28:57.992Z,14585.00
2022-08-30T12:29:58.184Z,83439.00
2022-08-30T12:30:58.383Z,12352.00
2022-08-30T12:31:58.689Z,11583.00
2022-08-30T12:32:58.781Z,22346.00
2022-08-30T12:34:00.798Z,11032.00
2022-08-30T12:34:59.181Z,11143.00
2022-08-30T12:35:59.645Z,11280.00
2022-08-30T12:36:59.603Z,11381.00
2022-08-30T12:37:59.786Z,10943.00
2022-08-30T12:39:04.969Z,11011.00
2022-08-30T12:40:00.301Z,10186.00
2022-08-30T12:41:00.391Z,10191.00
2022-08-30T12:42:00.571Z,10415.00
2022-08-30T12:43:00.768Z,10460.00
2022-08-30T12:44:01.445Z,10600.00
2022-08-30T12:45:01.187Z,10665.00
2022-08-30T12:46:07.220Z,10701.00
2022-08-30T12:47:01.597Z,11084.00
2022-08-30T12:48:01.783Z,11555.00
2022-08-30T12:49:02.001Z,11993.00